Time;durP1;ratioP1;P1;durP2;ratioP2;P2;SDS_P1;SDS_P2;PMS_P1;PMS_P2;Temp;Humidity;BMP_temperature;BMP_pressure;BME280_temperature;BME280_humidity;BME280_pressure;Samples;Min_cycle;Max_cycle;Signal;HPM_P1;HPM_P2
2023/01/11 00:00:25;;;;;;;0.70;0.70;;;8.40;99.90;;;;;;4976544;28;20046;-83
2023/01/11 00:02:58;;;;;;;0.60;0.60;;;8.40;99.90;;;;;;4959189;28;20078;-82
2023/01/11 00:05:24;;;;;;;0.40;0.40;;;8.50;99.90;;;;;;4991144;28;20456;-82
2023/01/11 00:07:50;;;;;;;;;;;8.50;99.90;;;;;;4977661;28;20042;-84
2023/01/11 00:10:16;;;;;;;0.40;0.40;;;8.50;99.90;;;;;;4992502;28;19969;-84
2023/01/11 00:12:43;;;;;;;0.55;0.55;;;8.50;99.90;;;;;;4992644;28;20073;-83
2023/01/11 00:15:09;;;;;;;0.45;0.45;;;8.50;99.90;;;;;;4975919;28;20108;-83
2023/01/11 00:17:35;;;;;;;0.50;0.50;;;8.50;99.90;;;;;;4975415;28;20054;-84
2023/01/11 00:20:01;;;;;;;0.50;0.50;;;8.50;99.90;;;;;;4975424;28;20049;-83
2023/01/11 00:22:27;;;;;;;0.47;0.47;;;8.50;99.90;;;;;;4976004;28;20081;-83
2023/01/11 00:24:53;;;;;;;0.47;0.47;;;8.50;99.90;;;;;;4997229;28;20488;-84
2023/01/11 00:27:19;;;;;;;0.50;0.50;;;8.50;99.90;;;;;;4991811;28;20154;-84
2023/01/11 00:29:44;;;;;;;0.65;0.60;;;8.50;99.90;;;;;;4975921;28;20046;-83
2023/01/11 00:32:10;;;;;;;0.95;0.95;;;8.50;99.90;;;;;;4962281;28;20051;-85
2023/01/11 00:34:36;;;;;;;0.50;0.50;;;8.60;99.90;;;;;;4962204;28;20077;-83
2023/01/11 00:37:05;;;;;;;0.65;0.65;;;8.60;99.90;;;;;;5007232;28;20034;-84
2023/01/11 00:39:30;;;;;;;0.70;0.70;;;8.60;99.90;;;;;;4973432;28;20498;-84
2023/01/11 00:50:13;;;;;;;0.57;0.57;;;8.70;99.90;;;;;;4991187;28;20447;-85
2023/01/11 00:52:39;;;;;;;0.50;0.50;;;8.80;99.90;;;;;;4990670;28;20103;-85
2023/01/11 00:55:05;;;;;;;0.50;0.50;;;8.80;99.90;;;;;;4958572;28;20074;-84
2023/01/11 00:57:31;;;;;;;;;;;8.80;99.90;;;;;;4971581;28;20118;-84
2023/01/11 00:59:57;;;;;;;0.45;0.45;;;8.80;99.90;;;;;;4989125;28;20021;-85
2023/01/11 01:02:23;;;;;;;0.50;0.50;;;8.80;99.90;;;;;;4990358;28;20042;-85
2023/01/11 01:04:48;;;;;;;0.40;0.40;;;8.80;99.90;;;;;;4969839;28;20089;-84
2023/01/11 01:07:14;;;;;;;0.45;0.45;;;8.80;99.90;;;;;;4991000;28;20038;-85
2023/01/11 01:09:41;;;;;;;0.70;0.70;;;8.80;99.90;;;;;;4990776;28;20042;-84
2023/01/11 01:12:08;;;;;;;0.63;0.63;;;8.90;99.90;;;;;;4986126;28;20054;-84
2023/01/11 01:14:34;;;;;;;0.65;0.65;;;8.90;99.90;;;;;;4990116;28;20046;-84
2023/01/11 01:17:07;;;;;;;0.40;0.40;;;8.90;99.90;;;;;;4987322;28;20038;-85
2023/01/11 01:19:35;;;;;;;0.40;0.40;;;8.90;99.90;;;;;;4973588;28;20606;-85
2023/01/11 01:22:03;;;;;;;0.35;0.35;;;8.90;99.90;;;;;;4988163;28;20045;-84
2023/01/11 01:24:29;;;;;;;0.43;0.43;;;9.00;99.90;;;;;;4953939;28;20038;-84
2023/01/11 01:26:56;;;;;;;0.30;0.30;;;9.00;99.90;;;;;;4988484;28;20058;-83
2023/01/11 01:29:23;;;;;;;0.45;0.45;;;8.90;99.90;;;;;;4977090;28;20035;-83
2023/01/11 01:31:49;;;;;;;0.30;0.30;;;9.00;99.90;;;;;;4982375;28;20387;-84
2023/01/11 01:34:15;;;;;;;0.50;0.50;;;9.00;99.90;;;;;;4991305;28;20126;-85
2023/01/11 01:36:41;;;;;;;0.65;0.65;;;9.10;99.90;;;;;;4989823;28;20143;-85
2023/01/11 01:39:09;;;;;;;0.82;0.82;;;9.10;99.90;;;;;;5010482;28;20046;-84
2023/01/11 01:41:36;;;;;;;0.50;0.50;;;9.20;99.90;;;;;;4992281;28;20058;-84
2023/01/11 01:44:05;;;;;;;0.50;0.50;;;9.20;99.90;;;;;;4990817;28;20105;-84
2023/01/11 01:46:32;;;;;;;0.50;0.50;;;9.30;99.90;;;;;;4975366;28;20097;-83
2023/01/11 01:49:17;;;;;;;0.63;0.63;;;9.40;99.90;;;;;;4989463;28;20066;-82
2023/01/11 01:51:54;;;;;;;0.55;0.55;;;9.40;99.90;;;;;;5008104;28;20038;-83
2023/01/11 01:54:25;;;;;;;0.43;0.43;;;9.40;99.90;;;;;;4993333;28;20129;-83
2023/01/11 01:56:55;;;;;;;0.40;0.40;;;9.50;99.90;;;;;;4989277;28;20046;-82
2023/01/11 01:59:24;;;;;;;0.30;0.30;;;9.50;99.90;;;;;;5003383;28;20120;-82
2023/01/11 02:01:51;;;;;;;0.50;0.50;;;9.50;99.90;;;;;;4974519;28;20073;-83
2023/01/11 02:04:22;;;;;;;0.40;0.40;;;9.60;99.90;;;;;;4975952;28;20065;-81
2023/01/11 02:06:51;;;;;;;0.43;0.43;;;9.60;99.90;;;;;;4986836;28;20047;-82
2023/01/11 02:09:43;;;;;;;0.40;0.40;;;9.60;99.90;;;;;;4987112;28;20081;-80
2023/01/11 02:12:10;;;;;;;0.30;0.30;;;9.60;99.90;;;;;;4985576;28;20038;-81
2023/01/11 02:14:38;;;;;;;0.50;0.50;;;9.60;99.90;;;;;;4976336;28;20038;-82
2023/01/11 02:17:04;;;;;;;0.50;0.50;;;9.70;99.90;;;;;;4986047;28;20046;-82
2023/01/11 02:20:11;;;;;;;0.57;0.57;;;9.70;99.90;;;;;;4986379;28;20046;-83
2023/01/11 02:23:16;;;;;;;0.55;0.55;;;9.70;99.90;;;;;;4951903;28;20168;-82
2023/01/11 02:26:11;;;;;;;0.35;0.35;;;9.70;99.90;;;;;;4934880;28;20528;-82
2023/01/11 02:29:15;;;;;;;0.45;0.45;;;9.70;99.90;;;;;;4986989;28;20042;-80
2023/01/11 02:31:47;;;;;;;0.40;0.40;;;9.80;99.90;;;;;;4957819;28;20051;-80
2023/01/11 02:34:27;;;;;;;0.30;0.30;;;9.80;99.90;;;;;;4990333;28;20050;-80
2023/01/11 02:37:12;;;;;;;0.40;0.40;;;9.80;99.90;;;;;;4985231;28;20736;-82
2023/01/11 02:40:02;;;;;;;0.40;0.40;;;9.80;99.90;;;;;;4988909;28;20065;-81
2023/01/11 02:45:31;;;;;;;;;;;9.90;99.90;;;;;;4989969;28;20054;-81
2023/01/11 02:48:22;;;;;;;0.47;0.47;;;9.90;99.90;;;;;;5003787;28;19965;-81
2023/01/11 02:51:09;;;;;;;0.40;0.40;;;9.80;99.90;;;;;;4991194;28;20038;-81
2023/01/11 02:53:42;;;;;;;0.40;0.40;;;9.90;99.90;;;;;;4990119;28;20138;-83
2023/01/11 02:56:12;;;;;;;0.50;0.50;;;9.90;99.90;;;;;;4987969;28;20038;-81
2023/01/11 02:58:42;;;;;;;0.40;0.40;;;9.90;99.90;;;;;;4975190;28;20038;-81
2023/01/11 03:01:08;;;;;;;0.40;0.40;;;9.90;99.90;;;;;;4990957;28;20062;-80
2023/01/11 03:03:34;;;;;;;0.43;0.43;;;9.90;99.90;;;;;;4990825;28;20384;-81
2023/01/11 03:06:10;;;;;;;0.50;0.50;;;9.90;99.90;;;;;;4974692;28;20045;-82
2023/01/11 03:09:22;;;;;;;0.30;0.30;;;9.90;99.90;;;;;;5002388;28;20611;-81
2023/01/11 03:14:52;;;;;;;0.45;0.45;;;10.00;99.90;;;;;;4987400;28;20053;-81
2023/01/11 03:17:44;;;;;;;0.40;0.40;;;10.00;99.90;;;;;;4987642;28;20390;-81
2023/01/11 03:20:44;;;;;;;0.40;0.40;;;10.00;99.90;;;;;;4987553;28;20057;-80
2023/01/11 03:23:33;;;;;;;0.32;0.32;;;10.00;99.90;;;;;;4986123;28;21043;-81
2023/01/11 03:26:37;;;;;;;0.30;0.30;;;10.00;99.90;;;;;;4989782;28;20049;-83
2023/01/11 03:29:21;;;;;;;0.32;0.32;;;10.00;99.90;;;;;;5005063;28;20550;-81
2023/01/11 03:31:47;;;;;;;0.40;0.40;;;10.00;99.90;;;;;;4988165;28;20082;-81
2023/01/11 03:34:30;;;;;;;0.52;0.52;;;10.10;99.90;;;;;;4988701;28;20451;-82
2023/01/11 03:37:00;;;;;;;0.40;0.40;;;10.10;99.90;;;;;;4985221;28;20053;-81
2023/01/11 03:39:37;;;;;;;0.40;0.40;;;10.10;99.90;;;;;;5000352;28;20120;-83
2023/01/11 03:42:06;;;;;;;0.40;0.40;;;10.10;99.90;;;;;;4987299;28;20044;-81
2023/01/11 03:44:44;;;;;;;0.40;0.40;;;10.10;99.90;;;;;;4987562;28;20479;-81
2023/01/11 03:47:13;;;;;;;0.43;0.43;;;10.20;99.90;;;;;;4993069;28;20050;-79
2023/01/11 03:49:50;;;;;;;0.43;0.43;;;10.20;99.90;;;;;;4992769;28;20108;-83
2023/01/11 03:52:24;;;;;;;0.50;0.50;;;10.20;99.90;;;;;;4989870;28;20038;-81
2023/01/11 03:54:51;;;;;;;0.30;0.30;;;10.20;99.90;;;;;;4988500;28;20460;-80
2023/01/11 03:57:22;;;;;;;0.70;0.70;;;10.30;99.90;;;;;;4968058;28;20145;-81
2023/01/11 03:59:49;;;;;;;1.17;0.75;;;10.30;99.90;;;;;;4987473;28;20121;-80
2023/01/11 04:02:23;;;;;;;0.40;0.40;;;10.30;99.90;;;;;;4989985;28;20388;-82
2023/01/11 04:04:50;;;;;;;0.65;0.65;;;10.40;99.90;;;;;;4992011;28;20046;-82
2023/01/11 04:07:17;;;;;;;0.40;0.40;;;10.40;99.90;;;;;;4992821;28;20484;-79
2023/01/11 04:09:49;;;;;;;0.40;0.40;;;10.40;99.90;;;;;;4991094;28;20135;-82
2023/01/11 04:12:14;;;;;;;0.57;0.57;;;10.40;99.90;;;;;;4995861;28;20130;-80
2023/01/11 04:14:40;;;;;;;0.40;0.40;;;10.50;99.90;;;;;;5001937;28;20042;-82
2023/01/11 04:17:06;;;;;;;0.40;0.40;;;10.50;99.90;;;;;;4989992;28;20042;-82
2023/01/11 04:19:31;;;;;;;0.43;0.43;;;10.40;99.90;;;;;;4989833;28;20097;-84
2023/01/11 04:21:57;;;;;;;0.60;0.60;;;10.50;99.90;;;;;;4993622;28;20113;-81
2023/01/11 04:24:23;;;;;;;1.52;1.45;;;10.50;99.90;;;;;;4986433;28;20058;-83
2023/01/11 04:26:49;;;;;;;0.85;0.85;;;10.50;99.90;;;;;;4957853;28;20562;-84
2023/01/11 04:29:14;;;;;;;0.40;0.40;;;10.50;99.90;;;;;;4989843;28;20038;-84
2023/01/11 04:31:40;;;;;;;1.95;1.85;;;10.50;99.90;;;;;;4972025;28;20034;-83
2023/01/11 04:34:06;;;;;;;0.47;0.47;;;10.40;99.90;;;;;;4988691;28;20082;-81
2023/01/11 04:36:32;;;;;;;0.55;0.55;;;10.30;99.90;;;;;;4978065;28;20058;-81
2023/01/11 04:38:58;;;;;;;0.50;0.50;;;10.20;99.90;;;;;;4968106;28;20042;-81
2023/01/11 04:44:08;;;;;;;0.32;0.32;;;9.90;99.90;;;;;;4974985;28;20302;-82
2023/01/11 04:46:34;;;;;;;0.40;0.40;;;9.80;99.90;;;;;;4989602;28;20038;-82
2023/01/11 04:49:00;;;;;;;0.30;0.30;;;9.70;99.90;;;;;;4991901;28;20038;-82
2023/01/11 04:51:26;;;;;;;0.35;0.35;;;9.50;99.90;;;;;;4971054;28;20034;-81
2023/01/11 04:53:52;;;;;;;0.30;0.30;;;9.50;99.90;;;;;;4970299;28;20050;-81
2023/01/11 04:56:17;;;;;;;0.30;0.30;;;9.40;99.90;;;;;;4993377;28;20408;-83
2023/01/11 04:58:43;;;;;;;0.50;0.50;;;9.40;99.90;;;;;;4959806;28;20057;-83
2023/01/11 05:01:10;;;;;;;;;;;9.40;99.90;;;;;;4986533;28;20090;-84
2023/01/11 05:03:36;;;;;;;0.60;0.60;;;9.40;99.90;;;;;;4988615;28;20009;-82
2023/01/11 05:06:03;;;;;;;0.95;0.90;;;9.40;99.90;;;;;;4978605;28;20058;-82
2023/01/11 05:08:29;;;;;;;0.55;0.55;;;9.40;99.90;;;;;;4973334;28;20069;-85
2023/01/11 05:10:59;;;;;;;0.40;0.40;;;9.40;99.90;;;;;;4978273;28;20410;-84
2023/01/11 05:13:40;;;;;;;0.50;0.50;;;9.40;99.90;;;;;;4994043;28;20046;-84
2023/01/11 05:16:26;;;;;;;0.50;0.50;;;9.40;99.90;;;;;;4993622;28;20045;-84
2023/01/11 05:18:57;;;;;;;0.40;0.40;;;9.50;99.90;;;;;;4989480;28;20391;-81
2023/01/11 05:21:30;;;;;;;0.63;0.63;;;9.50;99.90;;;;;;4971115;28;20049;-83
2023/01/11 05:23:56;;;;;;;0.45;0.45;;;9.50;99.90;;;;;;4990892;28;20046;-84
2023/01/11 05:26:26;;;;;;;0.50;0.50;;;9.60;99.90;;;;;;4991566;28;20126;-84
2023/01/11 05:28:53;;;;;;;0.63;0.63;;;9.60;99.90;;;;;;4991407;28;20352;-84
2023/01/11 05:31:18;;;;;;;0.35;0.35;;;9.60;99.90;;;;;;4991039;28;20039;-84
2023/01/11 05:33:44;;;;;;;0.50;0.50;;;9.70;99.90;;;;;;4975108;28;20136;-82
2023/01/11 05:36:16;;;;;;;0.40;0.40;;;9.70;99.90;;;;;;4975369;28;20542;-85
2023/01/11 05:38:44;;;;;;;0.30;0.30;;;9.70;99.90;;;;;;4992272;28;20054;-84
2023/01/11 05:41:14;;;;;;;0.47;0.47;;;9.70;99.90;;;;;;4989033;28;20057;-88
2023/01/11 05:46:28;;;;;;;0.60;0.60;;;9.50;99.90;;;;;;5005709;28;20079;-85
2023/01/11 05:48:54;;;;;;;0.40;0.40;;;9.70;99.90;;;;;;4988733;28;20046;-83
2023/01/11 05:51:21;;;;;;;0.40;0.40;;;9.70;99.90;;;;;;4986499;28;20046;-84
2023/01/11 05:53:47;;;;;;;0.60;0.60;;;9.70;99.90;;;;;;4974688;28;20050;-81
2023/01/11 05:56:13;;;;;;;;;;;9.70;99.90;;;;;;4975964;28;20546;-82
2023/01/11 05:58:38;;;;;;;0.43;0.43;;;9.70;99.90;;;;;;4973831;28;20020;-85
2023/01/11 06:01:05;;;;;;;0.40;0.40;;;9.70;99.90;;;;;;4991474;28;20038;-86
2023/01/11 06:03:31;;;;;;;1.55;0.57;;;9.70;99.90;;;;;;4956631;28;20034;-84
2023/01/11 06:05:58;;;;;;;0.38;0.38;;;9.70;99.90;;;;;;4990574;28;20093;-85
2023/01/11 06:08:24;;;;;;;0.40;0.40;;;9.60;99.90;;;;;;4949980;28;20500;-85
2023/01/11 06:10:52;;;;;;;;;;;9.50;99.90;;;;;;4987100;28;20121;-87
2023/01/11 06:13:27;;;;;;;0.45;0.45;;;9.50;99.90;;;;;;4974417;28;19925;-82
2023/01/11 06:16:04;;;;;;;0.50;0.50;;;9.40;99.90;;;;;;5003892;28;20153;-83
2023/01/11 06:18:35;;;;;;;0.70;0.70;;;9.40;99.90;;;;;;4991458;28;20061;-83
2023/01/11 06:21:03;;;;;;;0.50;0.50;;;9.40;99.90;;;;;;4974890;28;20076;-83
2023/01/11 06:23:30;;;;;;;2.92;0.70;;;9.40;99.90;;;;;;4989425;28;20047;-83
2023/01/11 06:25:59;;;;;;;0.45;0.45;;;9.40;99.90;;;;;;5002968;28;20406;-84
2023/01/11 06:28:25;;;;;;;1.55;0.57;;;9.50;99.90;;;;;;4981018;28;20042;-83
2023/01/11 06:30:52;;;;;;;0.40;0.40;;;9.50;99.90;;;;;;4997017;28;20042;-84
2023/01/11 06:33:18;;;;;;;0.73;0.73;;;9.50;99.90;;;;;;5002810;28;20112;-82
2023/01/11 06:35:44;;;;;;;1.55;1.45;;;9.50;99.90;;;;;;4959956;28;20063;-82
2023/01/11 06:38:13;;;;;;;0.40;0.40;;;9.50;99.90;;;;;;4995292;28;20046;-82
2023/01/11 06:40:40;;;;;;;0.50;0.50;;;9.50;99.90;;;;;;4992847;28;20045;-82
2023/01/11 06:43:06;;;;;;;1.85;1.75;;;9.50;99.90;;;;;;4978571;28;20042;-84
2023/01/11 06:45:33;;;;;;;0.32;0.32;;;9.50;99.90;;;;;;4980362;28;20038;-82
2023/01/11 06:47:59;;;;;;;1.05;1.05;;;9.50;99.90;;;;;;4996142;28;20034;-83
2023/01/11 06:50:25;;;;;;;0.47;0.47;;;9.50;99.90;;;;;;4994766;28;20045;-83
2023/01/11 06:53:00;;;;;;;0.40;0.40;;;9.50;99.90;;;;;;4995702;28;20061;-82
2023/01/11 06:55:28;;;;;;;0.30;0.30;;;9.50;99.90;;;;;;4991254;28;20050;-82
2023/01/11 06:57:54;;;;;;;0.50;0.50;;;9.50;99.90;;;;;;4993908;28;20042;-80
2023/01/11 07:00:20;;;;;;;1.95;1.85;;;9.50;99.90;;;;;;4998103;28;20052;-81
2023/01/11 07:02:46;;;;;;;0.60;0.60;;;9.50;99.90;;;;;;4991763;28;20043;-83
2023/01/11 07:05:13;;;;;;;0.40;0.40;;;9.50;99.90;;;;;;4992153;28;20427;-82
2023/01/11 07:07:39;;;;;;;;;;;9.40;99.90;;;;;;4995511;28;20118;-83
2023/01/11 07:10:08;;;;;;;0.38;0.38;;;9.40;99.90;;;;;;5008770;28;19922;-82
2023/01/11 07:12:36;;;;;;;0.30;0.30;;;9.40;99.90;;;;;;4973749;28;20057;-83
2023/01/11 07:15:03;;;;;;;0.40;0.40;;;9.40;99.90;;;;;;5000426;28;20341;-84
2023/01/11 07:17:29;;;;;;;1.95;1.85;;;9.40;99.90;;;;;;4996813;28;20104;-82
2023/01/11 07:19:55;;;;;;;0.40;0.40;;;9.30;99.90;;;;;;5000078;28;20120;-84
2023/01/11 07:22:23;;;;;;;0.50;0.50;;;9.30;99.90;;;;;;4996221;28;20048;-83
2023/01/11 07:24:50;;;;;;;0.43;0.43;;;9.30;99.90;;;;;;4993620;28;20050;-83
2023/01/11 07:27:16;;;;;;;0.40;0.40;;;9.30;99.90;;;;;;4993182;28;20078;-83
2023/01/11 07:29:41;;;;;;;0.43;0.43;;;9.30;99.90;;;;;;4992972;28;20424;-81
2023/01/11 07:32:09;;;;;;;0.55;0.55;;;9.30;99.90;;;;;;4994319;28;20045;-82
2023/01/11 07:34:36;;;;;;;0.93;0.93;;;9.30;99.90;;;;;;4978427;28;20167;-82
2023/01/11 07:37:02;;;;;;;0.50;0.50;;;9.20;99.90;;;;;;4975342;28;20133;-82
2023/01/11 07:39:28;;;;;;;;;;;9.20;99.90;;;;;;4995366;28;20038;-82
2023/01/11 07:44:38;;;;;;;1.08;1.08;;;9.20;99.90;;;;;;4986335;28;20042;-81
2023/01/11 07:47:03;;;;;;;0.40;0.40;;;9.20;99.90;;;;;;5004827;28;20729;-82
2023/01/11 07:49:30;;;;;;;0.40;0.40;;;9.20;99.90;;;;;;5000782;28;20468;-82
2023/01/11 07:51:56;;;;;;;0.60;0.60;;;9.10;99.90;;;;;;4995979;28;20065;-82
2023/01/11 07:54:23;;;;;;;1.65;1.60;;;9.10;99.90;;;;;;4996293;28;20045;-82
2023/01/11 07:56:49;;;;;;;0.50;0.50;;;9.10;99.90;;;;;;4986320;28;20042;-82
2023/01/11 07:59:16;;;;;;;0.60;0.60;;;9.20;99.90;;;;;;4974493;28;20046;-82
2023/01/11 08:01:41;;;;;;;0.60;0.60;;;9.20;99.90;;;;;;4997260;28;20471;-82
2023/01/11 08:04:10;;;;;;;0.50;0.50;;;9.20;99.90;;;;;;4982522;28;20046;-82
2023/01/11 08:06:37;;;;;;;0.47;0.47;;;9.20;99.90;;;;;;4989688;28;20515;-82
2023/01/11 08:09:03;;;;;;;0.57;0.57;;;9.20;99.90;;;;;;4986256;28;20049;-82
2023/01/11 08:16:57;;;;;;;1.40;1.33;;;9.20;99.90;;;;;;4985971;28;20129;-82
2023/01/11 08:19:23;;;;;;;0.50;0.50;;;9.30;99.90;;;;;;4970199;28;20133;-82
2023/01/11 08:21:49;;;;;;;0.60;0.60;;;9.30;99.90;;;;;;4975083;28;20057;-82
2023/01/11 08:24:16;;;;;;;1.75;1.65;;;8.50;99.90;;;;;;4974486;28;20822;-82
2023/01/11 08:26:41;;;;;;;;;;;9.20;99.90;;;;;;4991102;28;20392;-82
2023/01/11 08:29:07;;;;;;;0.30;0.30;;;9.20;99.90;;;;;;4988738;28;19925;-82
2023/01/11 08:31:33;;;;;;;0.40;0.40;;;9.10;99.90;;;;;;4974387;28;20043;-81
2023/01/11 08:33:58;;;;;;;0.52;0.52;;;9.10;99.90;;;;;;4991274;28;20046;-82
2023/01/11 08:36:26;;;;;;;0.98;0.82;;;9.10;99.90;;;;;;4989014;28;20089;-82
2023/01/11 08:38:55;;;;;;;0.40;0.40;;;9.00;99.90;;;;;;4992131;28;20869;-82
2023/01/11 08:41:22;;;;;;;0.40;0.40;;;9.00;99.90;;;;;;4984060;28;20051;-82
2023/01/11 08:43:48;;;;;;;0.50;0.50;;;9.00;99.90;;;;;;4974412;28;20034;-82
2023/01/11 08:46:15;;;;;;;0.50;0.50;;;9.00;99.90;;;;;;5006981;28;20054;-83
2023/01/11 08:48:41;;;;;;;0.50;0.50;;;8.90;99.90;;;;;;4987079;28;20475;-82
2023/01/11 08:51:07;;;;;;;;;;;8.90;99.90;;;;;;4999715;28;20082;-82
2023/01/11 08:53:33;;;;;;;0.55;0.55;;;8.90;99.90;;;;;;4994455;28;19961;-82
2023/01/11 08:56:04;;;;;;;0.40;0.40;;;8.90;99.90;;;;;;4993748;28;20050;-82
2023/01/11 08:58:30;;;;;;;0.30;0.30;;;8.80;99.90;;;;;;4991676;28;20122;-83
2023/01/11 09:01:01;;;;;;;0.50;0.50;;;8.80;99.90;;;;;;4990229;28;20141;-82
2023/01/11 09:03:28;;;;;;;1.00;1.00;;;8.70;99.90;;;;;;4989762;28;20053;-82
2023/01/11 09:05:55;;;;;;;0.50;0.50;;;8.70;99.90;;;;;;4988826;28;20093;-82
2023/01/11 09:08:22;;;;;;;0.90;0.90;;;8.60;99.90;;;;;;4988692;28;20034;-82
2023/01/11 09:10:48;;;;;;;0.52;0.52;;;8.80;99.90;;;;;;4972262;28;20047;-82
2023/01/11 09:13:13;;;;;;;0.50;0.50;;;8.80;99.90;;;;;;4988660;28;20054;-82
2023/01/11 09:15:39;;;;;;;0.40;0.40;;;8.80;99.90;;;;;;4989886;28;20039;-82
2023/01/11 09:18:05;;;;;;;0.65;0.65;;;8.80;99.90;;;;;;4994550;28;20113;-83
2023/01/11 09:20:31;;;;;;;0.50;0.50;;;8.80;99.90;;;;;;4986596;28;20038;-82
2023/01/11 09:22:56;;;;;;;3.85;0.80;;;8.70;99.90;;;;;;4989587;28;20043;-82
2023/01/11 09:25:23;;;;;;;0.40;0.40;;;8.60;99.90;;;;;;4972682;28;20480;-82
2023/01/11 09:27:50;;;;;;;0.65;0.65;;;8.60;99.90;;;;;;4989754;28;20053;-82
2023/01/11 09:30:19;;;;;;;0.50;0.50;;;8.50;99.90;;;;;;4982841;28;20066;-82
2023/01/11 09:32:49;;;;;;;0.40;0.40;;;8.40;99.90;;;;;;5003094;28;20046;-82
2023/01/11 09:35:15;;;;;;;0.50;0.50;;;8.40;99.90;;;;;;4991113;28;20085;-82
2023/01/11 09:37:53;;;;;;;0.40;0.40;;;8.40;99.90;;;;;;4991421;28;20043;-82
2023/01/11 09:40:54;;;;;;;0.50;0.50;;;8.40;99.90;;;;;;4992813;28;20076;-82
2023/01/11 09:43:25;;;;;;;0.63;0.63;;;8.40;99.90;;;;;;4993409;28;20451;-82
2023/01/11 09:45:51;;;;;;;0.50;0.50;;;8.40;99.90;;;;;;4990135;28;20097;-81
2023/01/11 09:48:43;;;;;;;0.75;0.75;;;8.50;99.90;;;;;;4993847;28;20114;-82
2023/01/11 09:51:15;;;;;;;3.20;1.27;;;8.60;99.90;;;;;;5015976;28;20039;-82
2023/01/11 09:53:48;;;;;;;0.40;0.40;;;8.60;99.90;;;;;;4992212;28;20038;-82
2023/01/11 09:56:23;;;;;;;1.88;1.17;;;8.60;99.90;;;;;;4976192;28;20612;-82
2023/01/11 09:59:15;;;;;;;0.45;0.45;;;8.70;99.90;;;;;;4993119;28;20042;-82
2023/01/11 10:02:18;;;;;;;0.40;0.40;;;8.80;99.90;;;;;;4993044;28;20713;-82
2023/01/11 10:05:17;;;;;;;0.38;0.38;;;8.80;99.90;;;;;;4988626;28;20826;-82
2023/01/11 10:08:00;;;;;;;0.50;0.50;;;8.80;99.90;;;;;;5000647;28;20045;-81
2023/01/11 10:11:09;;;;;;;0.60;0.60;;;8.90;99.90;;;;;;5009771;28;20124;-82
2023/01/11 10:13:47;;;;;;;0.95;0.95;;;8.90;99.90;;;;;;4967110;28;20051;-81
2023/01/11 10:16:47;;;;;;;0.50;0.50;;;8.90;99.90;;;;;;5007188;28;20049;-82
2023/01/11 10:19:44;;;;;;;0.35;0.35;;;8.90;99.90;;;;;;4993719;28;20043;-82
2023/01/11 10:22:32;;;;;;;0.40;0.40;;;8.90;99.90;;;;;;4994529;28;20142;-82
2023/01/11 10:25:15;;;;;;;0.40;0.40;;;8.90;99.90;;;;;;4994309;28;20074;-81
2023/01/11 10:27:59;;;;;;;0.57;0.57;;;8.90;99.90;;;;;;4998672;28;20038;-82
2023/01/11 10:33:49;;;;;;;0.40;0.40;;;9.00;99.90;;;;;;4994193;28;20125;-82
2023/01/11 10:40:14;;;;;;;0.40;0.40;;;9.10;99.90;;;;;;4990651;28;20093;-80
2023/01/11 10:42:53;;;;;;;0.52;0.52;;;9.10;99.90;;;;;;4992655;28;20038;-81
2023/01/11 10:45:26;;;;;;;0.40;0.40;;;9.20;99.90;;;;;;4999344;28;20043;-81
2023/01/11 10:48:14;;;;;;;0.40;0.40;;;9.20;99.90;;;;;;4988492;28;20050;-81
2023/01/11 10:51:00;;;;;;;0.55;0.55;;;9.30;99.90;;;;;;4987800;28;20050;-81
2023/01/11 10:53:56;;;;;;;1.85;0.65;;;9.30;99.90;;;;;;4989324;28;20062;-81
2023/01/11 10:56:56;;;;;;;0.47;0.47;;;9.40;99.90;;;;;;4995316;28;20057;-82
2023/01/11 10:59:52;;;;;;;0.50;0.50;;;9.30;99.90;;;;;;4992474;28;20038;-82
2023/01/11 11:02:20;;;;;;;0.55;0.55;;;9.30;99.90;;;;;;4986199;28;20046;-81
2023/01/11 11:04:49;;;;;;;0.68;0.68;;;9.40;99.90;;;;;;4991864;28;20065;-83
2023/01/11 11:07:39;;;;;;;0.60;0.60;;;9.40;99.90;;;;;;4976518;28;20041;-83
2023/01/11 11:10:08;;;;;;;0.50;0.50;;;9.40;99.90;;;;;;4993673;28;20368;-83
2023/01/11 11:12:38;;;;;;;0.60;0.60;;;9.40;99.90;;;;;;4991133;28;20043;-82
2023/01/11 11:15:16;;;;;;;0.40;0.40;;;9.40;99.90;;;;;;5005385;28;20076;-82
2023/01/11 11:17:48;;;;;;;8.05;2.83;;;9.40;99.90;;;;;;4990122;28;20038;-83
2023/01/11 11:20:17;;;;;;;0.52;0.52;;;9.30;99.90;;;;;;4987162;28;20116;-82
2023/01/11 11:22:43;;;;;;;0.50;0.50;;;9.30;99.90;;;;;;4990699;28;20034;-82
2023/01/11 11:25:30;;;;;;;0.50;0.50;;;9.40;99.90;;;;;;4993236;28;20084;-82
2023/01/11 11:28:07;;;;;;;1.05;0.77;;;9.40;99.90;;;;;;4989917;28;20137;-82
2023/01/11 11:30:40;;;;;;;0.68;0.68;;;9.40;99.90;;;;;;4972891;28;20042;-83
2023/01/11 11:33:20;;;;;;;0.60;0.60;;;9.50;99.90;;;;;;4987338;28;20623;-82
2023/01/11 11:35:55;;;;;;;0.65;0.65;;;9.50;99.90;;;;;;4988197;28;20634;-82
2023/01/11 11:38:28;;;;;;;0.82;0.82;;;9.50;99.90;;;;;;4989216;28;20133;-83
2023/01/11 11:41:03;;;;;;;0.30;0.30;;;9.50;99.90;;;;;;4986615;28;20240;-82
2023/01/11 11:43:31;;;;;;;0.80;0.80;;;9.40;99.90;;;;;;4974736;28;20050;-83
2023/01/11 11:46:02;;;;;;;0.60;0.60;;;9.40;99.90;;;;;;4994133;28;20048;-83
2023/01/11 11:48:30;;;;;;;0.30;0.30;;;9.40;99.90;;;;;;4989695;28;20038;-83
2023/01/11 11:51:05;;;;;;;0.32;0.32;;;9.40;99.90;;;;;;4989824;28;20511;-83
2023/01/11 11:53:36;;;;;;;0.40;0.40;;;9.40;99.90;;;;;;4989224;28;20042;-83
2023/01/11 11:56:36;;;;;;;0.50;0.50;;;9.30;99.90;;;;;;5006548;28;21765;-82
2023/01/11 11:59:08;;;;;;;0.50;0.50;;;9.40;99.90;;;;;;4988450;28;20050;-83
2023/01/11 12:01:38;;;;;;;18.17;1.55;;;9.40;99.90;;;;;;5004864;28;20117;-83
2023/01/11 12:04:19;;;;;;;0.40;0.40;;;9.40;99.90;;;;;;4981310;28;20087;-83
2023/01/11 12:07:06;;;;;;;0.52;0.52;;;9.50;99.90;;;;;;4984412;28;20080;-82
2023/01/11 12:09:33;;;;;;;0.40;0.40;;;9.50;99.90;;;;;;5004914;28;20845;-82
2023/01/11 12:11:59;;;;;;;0.50;0.50;;;9.50;99.90;;;;;;4975071;28;20038;-82
2023/01/11 12:14:34;;;;;;;;;;;9.50;99.90;;;;;;4960289;28;20109;-83
2023/01/11 12:17:14;;;;;;;0.40;0.40;;;9.80;99.90;;;;;;4986885;28;20287;-83
2023/01/11 12:19:46;;;;;;;0.50;0.50;;;9.50;99.90;;;;;;4983538;28;20118;-83
2023/01/11 12:22:27;;;;;;;0.50;0.50;;;9.50;99.90;;;;;;4991111;28;20049;-83
2023/01/11 12:25:04;;;;;;;0.50;0.50;;;9.60;99.90;;;;;;4981666;28;20058;-82
2023/01/11 12:27:37;;;;;;;0.75;0.75;;;9.60;99.90;;;;;;4985019;28;20050;-83
2023/01/11 12:30:20;;;;;;;0.43;0.43;;;9.70;99.90;;;;;;4980495;28;20497;-82
2023/01/11 12:33:36;;;;;;;0.40;0.40;;;9.70;99.90;;;;;;4984782;28;20042;-82
2023/01/11 12:36:04;;;;;;;0.57;0.57;;;9.70;99.90;;;;;;4969539;28;20057;-82
2023/01/11 12:38:52;;;;;;;0.40;0.40;;;9.70;99.90;;;;;;4986480;28;20054;-83
2023/01/11 12:41:48;;;;;;;0.55;0.55;;;9.70;99.90;;;;;;4984493;28;20054;-82
2023/01/11 12:44:40;;;;;;;3.40;0.80;;;9.70;99.90;;;;;;4966020;28;20102;-82
2023/01/11 12:47:27;;;;;;;1.35;1.35;;;9.70;99.90;;;;;;4988338;28;20061;-82
2023/01/11 12:50:02;;;;;;;0.50;0.50;;;9.70;99.90;;;;;;4986128;28;20102;-83
2023/01/11 12:52:38;;;;;;;0.30;0.30;;;9.70;99.90;;;;;;5005883;28;20131;-82
2023/01/11 12:55:26;;;;;;;0.60;0.60;;;9.70;99.90;;;;;;4988820;28;20046;-82
2023/01/11 12:57:59;;;;;;;0.55;0.55;;;9.70;99.90;;;;;;4973910;28;20093;-82
2023/01/11 13:00:41;;;;;;;1.05;1.00;;;9.70;99.90;;;;;;4982796;28;20150;-82
2023/01/11 13:03:39;;;;;;;0.50;0.50;;;9.80;99.90;;;;;;4994034;28;20112;-82
2023/01/11 13:06:12;;;;;;;0.65;0.60;;;9.80;99.90;;;;;;4980677;28;20054;-82
2023/01/11 13:08:59;;;;;;;0.50;0.50;;;9.90;99.90;;;;;;4985220;28;20069;-82
2023/01/11 13:11:55;;;;;;;0.40;0.40;;;9.90;99.90;;;;;;4968140;28;20084;-82
2023/01/11 13:14:31;;;;;;;0.40;0.40;;;9.80;99.90;;;;;;4988808;28;20137;-82
2023/01/11 13:17:22;;;;;;;0.70;0.70;;;9.80;99.90;;;;;;4994009;28;20060;-83
2023/01/11 13:19:58;;;;;;;1.25;1.15;;;9.80;99.90;;;;;;4986838;28;20046;-83
2023/01/11 13:22:30;;;;;;;0.90;0.85;;;9.70;99.90;;;;;;4987376;28;20052;-84
2023/01/11 13:24:57;;;;;;;0.40;0.40;;;9.60;99.90;;;;;;4984173;28;20053;-84
2023/01/11 13:27:24;;;;;;;0.30;0.30;;;9.60;99.90;;;;;;4972091;28;20038;-83
2023/01/11 13:29:55;;;;;;;0.40;0.40;;;9.70;99.90;;;;;;4989967;28;20038;-83
2023/01/11 13:32:24;;;;;;;1.13;1.02;;;9.60;99.90;;;;;;4978939;28;20499;-83
2023/01/11 13:34:58;;;;;;;0.40;0.40;;;9.60;99.90;;;;;;4991147;28;20403;-83
2023/01/11 13:37:40;;;;;;;1.25;0.68;;;9.60;99.90;;;;;;4988979;28;20090;-84
2023/01/11 13:40:34;;;;;;;0.40;0.40;;;9.60;99.90;;;;;;4990974;28;20054;-84
2023/01/11 13:43:04;;;;;;;0.32;0.32;;;9.70;99.90;;;;;;4989123;28;20185;-82
2023/01/11 13:45:47;;;;;;;0.45;0.45;;;9.70;99.90;;;;;;4974710;28;20039;-83
2023/01/11 13:48:16;;;;;;;1.27;1.17;;;9.70;99.90;;;;;;4993903;28;20038;-83
2023/01/11 13:50:49;;;;;;;0.40;0.40;;;9.70;99.90;;;;;;4991671;28;20378;-84
2023/01/11 13:53:35;;;;;;;11.05;1.00;;;9.70;99.90;;;;;;4997101;28;20749;-83
2023/01/11 13:56:12;;;;;;;0.40;0.40;;;9.80;99.90;;;;;;4970625;28;20666;-83
2023/01/11 13:58:54;;;;;;;0.47;0.47;;;9.70;99.90;;;;;;5002223;28;20117;-83
2023/01/11 14:01:33;;;;;;;0.57;0.57;;;9.70;99.90;;;;;;4986753;28;20073;-84